sensor_id;sensor_type;location;lat;lon;timestamp;temperature;humidity
67354;SHT30;54238;52.278;21.056;2023-02-08T00:01:42;2.36;69.24
67354;SHT30;54238;52.278;21.056;2023-02-08T00:04:12;2.36;69.20
67354;SHT30;54238;52.278;21.056;2023-02-08T00:06:41;2.34;69.15
67354;SHT30;54238;52.278;21.056;2023-02-08T00:09:08;2.33;69.20
67354;SHT30;54238;52.278;21.056;2023-02-08T00:11:38;2.29;69.16
67354;SHT30;54238;52.278;21.056;2023-02-08T00:14:07;2.27;69.38
67354;SHT30;54238;52.278;21.056;2023-02-08T00:16:34;2.28;69.42
67354;SHT30;54238;52.278;21.056;2023-02-08T00:19:01;2.29;69.34
67354;SHT30;54238;52.278;21.056;2023-02-08T00:21:35;2.24;69.29
67354;SHT30;54238;52.278;21.056;2023-02-08T00:24:02;2.22;69.45
67354;SHT30;54238;52.278;21.056;2023-02-08T00:26:32;2.23;69.62
67354;SHT30;54238;52.278;21.056;2023-02-08T00:29:04;2.23;69.57
67354;SHT30;54238;52.278;21.056;2023-02-08T00:31:31;2.23;69.68
67354;SHT30;54238;52.278;21.056;2023-02-08T00:33:58;2.23;69.68
67354;SHT30;54238;52.278;21.056;2023-02-08T00:36:27;2.25;69.66
67354;SHT30;54238;52.278;21.056;2023-02-08T00:38:54;2.25;69.68
67354;SHT30;54238;52.278;21.056;2023-02-08T00:41:23;2.24;69.73
67354;SHT30;54238;52.278;21.056;2023-02-08T00:43:50;2.27;69.75
67354;SHT30;54238;52.278;21.056;2023-02-08T00:46:17;2.28;69.67
67354;SHT30;54238;52.278;21.056;2023-02-08T00:48:47;2.29;69.56
67354;SHT30;54238;52.278;21.056;2023-02-08T00:51:16;2.27;69.52
67354;SHT30;54238;52.278;21.056;2023-02-08T00:53:43;2.29;69.61
67354;SHT30;54238;52.278;21.056;2023-02-08T00:56:15;2.31;69.51
67354;SHT30;54238;52.278;21.056;2023-02-08T00:58:45;2.31;69.55
67354;SHT30;54238;52.278;21.056;2023-02-08T01:01:12;2.31;69.48
67354;SHT30;54238;52.278;21.056;2023-02-08T01:03:42;2.31;69.51
67354;SHT30;54238;52.278;21.056;2023-02-08T01:06:15;2.30;69.48
67354;SHT30;54238;52.278;21.056;2023-02-08T01:08:46;2.29;69.40
67354;SHT30;54238;52.278;21.056;2023-02-08T01:11:18;2.31;69.47
67354;SHT30;54238;52.278;21.056;2023-02-08T01:13:54;2.32;69.49
67354;SHT30;54238;52.278;21.056;2023-02-08T01:16:26;2.33;69.52
67354;SHT30;54238;52.278;21.056;2023-02-08T01:18:59;2.33;69.50
67354;SHT30;54238;52.278;21.056;2023-02-08T01:21:31;2.34;69.48
67354;SHT30;54238;52.278;21.056;2023-02-08T01:24:07;2.35;69.42
67354;SHT30;54238;52.278;21.056;2023-02-08T01:26:40;2.33;69.45
67354;SHT30;54238;52.278;21.056;2023-02-08T01:29:07;2.33;69.50
67354;SHT30;54238;52.278;21.056;2023-02-08T01:31:38;2.33;69.39
67354;SHT30;54238;52.278;21.056;2023-02-08T01:34:10;2.33;69.20
67354;SHT30;54238;52.278;21.056;2023-02-08T01:36:38;2.30;69.16
67354;SHT30;54238;52.278;21.056;2023-02-08T01:39:09;2.25;69.30
67354;SHT30;54238;52.278;21.056;2023-02-08T01:41:39;2.25;69.49
67354;SHT30;54238;52.278;21.056;2023-02-08T01:46:42;2.30;69.35
67354;SHT30;54238;52.278;21.056;2023-02-08T01:49:22;2.32;69.31
67354;SHT30;54238;52.278;21.056;2023-02-08T01:54:44;2.34;69.19
67354;SHT30;54238;52.278;21.056;2023-02-08T01:57:27;2.34;69.19
67354;SHT30;54238;52.278;21.056;2023-02-08T02:00:07;2.34;69.09
67354;SHT30;54238;52.278;21.056;2023-02-08T02:02:44;2.30;69.11
67354;SHT30;54238;52.278;21.056;2023-02-08T02:05:15;2.25;69.25
67354;SHT30;54238;52.278;21.056;2023-02-08T02:07:43;2.23;69.40
67354;SHT30;54238;52.278;21.056;2023-02-08T02:10:18;2.22;69.50
67354;SHT30;54238;52.278;21.056;2023-02-08T02:12:52;2.22;69.50
67354;SHT30;54238;52.278;21.056;2023-02-08T02:15:26;2.21;69.53
67354;SHT30;54238;52.278;21.056;2023-02-08T02:17:54;2.20;69.60
67354;SHT30;54238;52.278;21.056;2023-02-08T02:23:27;2.21;69.67
67354;SHT30;54238;52.278;21.056;2023-02-08T02:32:21;2.26;69.56
67354;SHT30;54238;52.278;21.056;2023-02-08T02:41:16;2.25;69.71
67354;SHT30;54238;52.278;21.056;2023-02-08T02:50:32;2.24;69.63
67354;SHT30;54238;52.278;21.056;2023-02-08T02:56:15;2.27;69.47
67354;SHT30;54238;52.278;21.056;2023-02-08T02:58:47;2.27;69.37
67354;SHT30;54238;52.278;21.056;2023-02-08T03:01:21;2.25;69.39
67354;SHT30;54238;52.278;21.056;2023-02-08T03:03:55;2.23;69.60
67354;SHT30;54238;52.278;21.056;2023-02-08T03:21:17;2.21;69.63
67354;SHT30;54238;52.278;21.056;2023-02-08T03:29:34;2.16;69.81
67354;SHT30;54238;52.278;21.056;2023-02-08T03:32:10;2.16;69.74
67354;SHT30;54238;52.278;21.056;2023-02-08T03:37:21;2.17;69.87
67354;SHT30;54238;52.278;21.056;2023-02-08T03:39:56;2.15;69.84
67354;SHT30;54238;52.278;21.056;2023-02-08T03:42:33;2.19;69.85
67354;SHT30;54238;52.278;21.056;2023-02-08T03:45:22;2.18;69.80
67354;SHT30;54238;52.278;21.056;2023-02-08T03:48:33;2.16;69.90
67354;SHT30;54238;52.278;21.056;2023-02-08T03:51:03;2.16;69.92
67354;SHT30;54238;52.278;21.056;2023-02-08T03:53:40;2.13;69.98
67354;SHT30;54238;52.278;21.056;2023-02-08T03:56:13;2.10;70.00
67354;SHT30;54238;52.278;21.056;2023-02-08T03:58:57;2.09;70.12
67354;SHT30;54238;52.278;21.056;2023-02-08T04:01:43;2.11;70.10
67354;SHT30;54238;52.278;21.056;2023-02-08T04:04:17;2.11;70.11
67354;SHT30;54238;52.278;21.056;2023-02-08T04:06:47;2.09;70.18
67354;SHT30;54238;52.278;21.056;2023-02-08T04:09:17;2.07;70.24
67354;SHT30;54238;52.278;21.056;2023-02-08T04:11:44;2.09;70.37
67354;SHT30;54238;52.278;21.056;2023-02-08T04:14:11;2.11;70.32
67354;SHT30;54238;52.278;21.056;2023-02-08T04:16:38;2.09;70.42
67354;SHT30;54238;52.278;21.056;2023-02-08T04:19:05;2.09;70.44
67354;SHT30;54238;52.278;21.056;2023-02-08T04:21:37;2.09;70.41
67354;SHT30;54238;52.278;21.056;2023-02-08T04:24:07;2.09;70.48
67354;SHT30;54238;52.278;21.056;2023-02-08T04:26:37;2.10;70.48
67354;SHT30;54238;52.278;21.056;2023-02-08T04:29:11;2.13;70.48
67354;SHT30;54238;52.278;21.056;2023-02-08T04:31:45;2.14;70.46
67354;SHT30;54238;52.278;21.056;2023-02-08T04:34:13;2.15;70.49
67354;SHT30;54238;52.278;21.056;2023-02-08T04:36:44;2.18;70.46
67354;SHT30;54238;52.278;21.056;2023-02-08T04:39:12;2.16;70.43
67354;SHT30;54238;52.278;21.056;2023-02-08T04:41:39;2.12;70.58
67354;SHT30;54238;52.278;21.056;2023-02-08T04:44:09;2.11;70.76
67354;SHT30;54238;52.278;21.056;2023-02-08T04:46:40;2.09;70.82
67354;SHT30;54238;52.278;21.056;2023-02-08T04:49:10;2.11;70.82
67354;SHT30;54238;52.278;21.056;2023-02-08T04:51:37;2.08;70.84
67354;SHT30;54238;52.278;21.056;2023-02-08T04:54:06;2.03;70.93
67354;SHT30;54238;52.278;21.056;2023-02-08T04:56:36;2.02;71.06
67354;SHT30;54238;52.278;21.056;2023-02-08T04:59:03;2.02;71.07
67354;SHT30;54238;52.278;21.056;2023-02-08T05:01:33;2.04;71.12
67354;SHT30;54238;52.278;21.056;2023-02-08T05:04:05;2.04;71.23
67354;SHT30;54238;52.278;21.056;2023-02-08T05:09:32;2.06;71.27
67354;SHT30;54238;52.278;21.056;2023-02-08T05:11:59;2.08;71.30
67354;SHT30;54238;52.278;21.056;2023-02-08T05:14:29;2.10;71.30
67354;SHT30;54238;52.278;21.056;2023-02-08T05:17:01;2.12;71.30
67354;SHT30;54238;52.278;21.056;2023-02-08T05:19:34;2.12;71.23
67354;SHT30;54238;52.278;21.056;2023-02-08T05:22:03;2.10;71.33
67354;SHT30;54238;52.278;21.056;2023-02-08T05:24:34;2.09;71.49
67354;SHT30;54238;52.278;21.056;2023-02-08T05:27:04;2.12;71.41
67354;SHT30;54238;52.278;21.056;2023-02-08T05:29:33;2.14;71.34
67354;SHT30;54238;52.278;21.056;2023-02-08T05:32:01;2.13;71.25
67354;SHT30;54238;52.278;21.056;2023-02-08T05:34:33;2.12;71.29
67354;SHT30;54238;52.278;21.056;2023-02-08T05:37:00;2.12;71.31
67354;SHT30;54238;52.278;21.056;2023-02-08T05:39:32;2.12;71.20
67354;SHT30;54238;52.278;21.056;2023-02-08T05:42:02;2.13;71.17
67354;SHT30;54238;52.278;21.056;2023-02-08T05:44:34;2.13;70.96
67354;SHT30;54238;52.278;21.056;2023-02-08T05:47:01;2.13;70.81
67354;SHT30;54238;52.278;21.056;2023-02-08T05:49:30;2.10;70.96
67354;SHT30;54238;52.278;21.056;2023-02-08T05:51:59;2.10;71.00
67354;SHT30;54238;52.278;21.056;2023-02-08T05:54:29;2.10;71.00
67354;SHT30;54238;52.278;21.056;2023-02-08T05:56:58;2.11;71.03
67354;SHT30;54238;52.278;21.056;2023-02-08T05:59:28;2.12;71.02
67354;SHT30;54238;52.278;21.056;2023-02-08T06:01:55;2.14;70.97
67354;SHT30;54238;52.278;21.056;2023-02-08T06:04:25;2.16;71.01
67354;SHT30;54238;52.278;21.056;2023-02-08T06:06:56;2.18;70.94
67354;SHT30;54238;52.278;21.056;2023-02-08T06:09:26;2.19;70.90
67354;SHT30;54238;52.278;21.056;2023-02-08T06:11:53;2.22;70.88
67354;SHT30;54238;52.278;21.056;2023-02-08T06:14:25;2.22;70.90
67354;SHT30;54238;52.278;21.056;2023-02-08T06:16:54;2.24;70.83
67354;SHT30;54238;52.278;21.056;2023-02-08T06:19:26;2.24;70.88
67354;SHT30;54238;52.278;21.056;2023-02-08T06:21:56;2.25;70.89
67354;SHT30;54238;52.278;21.056;2023-02-08T06:24:25;2.27;70.82
67354;SHT30;54238;52.278;21.056;2023-02-08T06:26:59;2.28;70.83
67354;SHT30;54238;52.278;21.056;2023-02-08T06:29:29;2.26;70.88
67354;SHT30;54238;52.278;21.056;2023-02-08T06:32:02;2.26;70.90
67354;SHT30;54238;52.278;21.056;2023-02-08T06:34:31;2.28;70.96
67354;SHT30;54238;52.278;21.056;2023-02-08T06:36:58;2.29;70.92
67354;SHT30;54238;52.278;21.056;2023-02-08T06:39:48;2.30;71.07
67354;SHT30;54238;52.278;21.056;2023-02-08T06:42:18;2.31;70.99
67354;SHT30;54238;52.278;21.056;2023-02-08T06:44:50;2.32;70.94
67354;SHT30;54238;52.278;21.056;2023-02-08T06:47:24;2.34;71.00
67354;SHT30;54238;52.278;21.056;2023-02-08T06:49:57;2.35;70.94
67354;SHT30;54238;52.278;21.056;2023-02-08T06:52:29;2.36;70.77
67354;SHT30;54238;52.278;21.056;2023-02-08T06:55:00;2.36;70.65
67354;SHT30;54238;52.278;21.056;2023-02-08T06:57:30;2.33;70.67
67354;SHT30;54238;52.278;21.056;2023-02-08T07:00:02;2.35;70.68
67354;SHT30;54238;52.278;21.056;2023-02-08T07:02:36;2.37;70.62
67354;SHT30;54238;52.278;21.056;2023-02-08T07:05:03;2.35;70.64
67354;SHT30;54238;52.278;21.056;2023-02-08T07:07:40;2.38;70.69
67354;SHT30;54238;52.278;21.056;2023-02-08T07:10:09;2.41;70.58
67354;SHT30;54238;52.278;21.056;2023-02-08T07:12:39;2.43;70.41
67354;SHT30;54238;52.278;21.056;2023-02-08T07:15:08;2.43;70.36
67354;SHT30;54238;52.278;21.056;2023-02-08T07:17:39;2.44;70.31
67354;SHT30;54238;52.278;21.056;2023-02-08T07:20:08;2.43;70.19
67354;SHT30;54238;52.278;21.056;2023-02-08T07:22:39;2.42;70.10
67354;SHT30;54238;52.278;21.056;2023-02-08T07:25:09;2.40;70.10
67354;SHT30;54238;52.278;21.056;2023-02-08T07:27:39;2.41;70.02
67354;SHT30;54238;52.278;21.056;2023-02-08T07:30:09;2.39;69.93
67354;SHT30;54238;52.278;21.056;2023-02-08T07:32:37;2.40;69.95
67354;SHT30;54238;52.278;21.056;2023-02-08T07:35:06;2.42;69.99
67354;SHT30;54238;52.278;21.056;2023-02-08T07:37:36;2.43;70.02
67354;SHT30;54238;52.278;21.056;2023-02-08T07:40:03;2.45;70.07
67354;SHT30;54238;52.278;21.056;2023-02-08T07:42:36;2.48;69.98
67354;SHT30;54238;52.278;21.056;2023-02-08T07:45:03;2.48;69.92
67354;SHT30;54238;52.278;21.056;2023-02-08T07:47:31;2.50;69.98
67354;SHT30;54238;52.278;21.056;2023-02-08T07:50:03;2.51;69.90
67354;SHT30;54238;52.278;21.056;2023-02-08T07:52:33;2.52;69.93
67354;SHT30;54238;52.278;21.056;2023-02-08T07:55:00;2.53;69.87
67354;SHT30;54238;52.278;21.056;2023-02-08T07:57:33;2.52;69.82
67354;SHT30;54238;52.278;21.056;2023-02-08T08:00:05;2.49;70.08
67354;SHT30;54238;52.278;21.056;2023-02-08T08:02:35;2.50;69.99
67354;SHT30;54238;52.278;21.056;2023-02-08T08:05:09;2.53;70.08
67354;SHT30;54238;52.278;21.056;2023-02-08T08:07:40;2.54;70.09
67354;SHT30;54238;52.278;21.056;2023-02-08T08:10:07;2.59;70.08
67354;SHT30;54238;52.278;21.056;2023-02-08T08:12:35;2.64;69.89
67354;SHT30;54238;52.278;21.056;2023-02-08T08:15:05;2.65;69.70
67354;SHT30;54238;52.278;21.056;2023-02-08T08:17:51;2.66;69.69
67354;SHT30;54238;52.278;21.056;2023-02-08T08:20:19;2.67;69.64
67354;SHT30;54238;52.278;21.056;2023-02-08T08:22:56;2.69;69.70
67354;SHT30;54238;52.278;21.056;2023-02-08T08:25:26;2.73;69.63
67354;SHT30;54238;52.278;21.056;2023-02-08T08:27:59;2.76;69.62
67354;SHT30;54238;52.278;21.056;2023-02-08T08:30:32;2.74;69.51
67354;SHT30;54238;52.278;21.056;2023-02-08T08:33:07;2.76;69.54
67354;SHT30;54238;52.278;21.056;2023-02-08T08:35:36;2.80;69.52
67354;SHT30;54238;52.278;21.056;2023-02-08T08:38:13;2.79;69.32
67354;SHT30;54238;52.278;21.056;2023-02-08T08:40:40;2.77;69.40
67354;SHT30;54238;52.278;21.056;2023-02-08T08:45:48;2.79;69.33
67354;SHT30;54238;52.278;21.056;2023-02-08T08:48:20;2.78;69.33
67354;SHT30;54238;52.278;21.056;2023-02-08T08:50:49;2.80;69.47
67354;SHT30;54238;52.278;21.056;2023-02-08T08:53:19;2.84;69.40
67354;SHT30;54238;52.278;21.056;2023-02-08T08:55:49;2.86;69.42
67354;SHT30;54238;52.278;21.056;2023-02-08T08:58:18;2.91;69.36
67354;SHT30;54238;52.278;21.056;2023-02-08T09:00:48;2.94;69.32
67354;SHT30;54238;52.278;21.056;2023-02-08T09:03:19;2.98;69.16
67354;SHT30;54238;52.278;21.056;2023-02-08T09:05:46;3.01;69.08
67354;SHT30;54238;52.278;21.056;2023-02-08T09:08:18;3.06;69.07
67354;SHT30;54238;52.278;21.056;2023-02-08T09:10:48;3.10;69.13
67354;SHT30;54238;52.278;21.056;2023-02-08T09:13:18;3.14;69.19
67354;SHT30;54238;52.278;21.056;2023-02-08T09:15:47;3.20;68.94
67354;SHT30;54238;52.278;21.056;2023-02-08T09:18:17;3.24;68.89
67354;SHT30;54238;52.278;21.056;2023-02-08T09:20:47;3.31;68.81
67354;SHT30;54238;52.278;21.056;2023-02-08T09:23:16;3.38;68.59
67354;SHT30;54238;52.278;21.056;2023-02-08T09:25:46;3.44;68.41
67354;SHT30;54238;52.278;21.056;2023-02-08T09:28:16;3.50;68.28
67354;SHT30;54238;52.278;21.056;2023-02-08T09:30:46;3.53;68.12
67354;SHT30;54238;52.278;21.056;2023-02-08T09:33:13;3.55;67.96
67354;SHT30;54238;52.278;21.056;2023-02-08T09:35:45;3.60;67.90
67354;SHT30;54238;52.278;21.056;2023-02-08T09:38:15;3.64;67.60
67354;SHT30;54238;52.278;21.056;2023-02-08T09:46:21;3.71;67.11
67354;SHT30;54238;52.278;21.056;2023-02-08T09:48:57;3.73;66.93
67354;SHT30;54238;52.278;21.056;2023-02-08T09:51:40;3.77;66.96
67354;SHT30;54238;52.278;21.056;2023-02-08T09:54:21;3.81;66.83
67354;SHT30;54238;52.278;21.056;2023-02-08T09:57:05;3.84;66.61
67354;SHT30;54238;52.278;21.056;2023-02-08T09:59:55;3.87;66.52
67354;SHT30;54238;52.278;21.056;2023-02-08T10:02:36;3.93;66.45
67354;SHT30;54238;52.278;21.056;2023-02-08T10:05:12;3.96;66.23
67354;SHT30;54238;52.278;21.056;2023-02-08T10:07:48;4.01;65.75
67354;SHT30;54238;52.278;21.056;2023-02-08T10:10:20;4.02;65.56
67354;SHT30;54238;52.278;21.056;2023-02-08T10:13:15;4.00;65.32
67354;SHT30;54238;52.278;21.056;2023-02-08T10:22:20;4.08;64.37
67354;SHT30;54238;52.278;21.056;2023-02-08T10:28:27;4.10;64.01
67354;SHT30;54238;52.278;21.056;2023-02-08T10:37:30;4.06;63.80
67354;SHT30;54238;52.278;21.056;2023-02-08T10:40:20;4.03;63.38
67354;SHT30;54238;52.278;21.056;2023-02-08T10:51:44;3.89;59.31
67354;SHT30;54238;52.278;21.056;2023-02-08T10:54:15;3.83;58.88
67354;SHT30;54238;52.278;21.056;2023-02-08T11:02:00;3.78;57.28
67354;SHT30;54238;52.278;21.056;2023-02-08T11:04:27;3.78;56.86
67354;SHT30;54238;52.278;21.056;2023-02-08T11:06:55;3.73;56.14
67354;SHT30;54238;52.278;21.056;2023-02-08T11:09:29;3.68;55.91
67354;SHT30;54238;52.278;21.056;2023-02-08T11:12:01;3.65;56.01
67354;SHT30;54238;52.278;21.056;2023-02-08T11:14:37;3.64;56.49
67354;SHT30;54238;52.278;21.056;2023-02-08T11:17:10;3.67;56.22
67354;SHT30;54238;52.278;21.056;2023-02-08T11:19:56;3.66;55.84
67354;SHT30;54238;52.278;21.056;2023-02-08T11:22:28;3.65;55.10
67354;SHT30;54238;52.278;21.056;2023-02-08T11:25:05;3.61;54.85
67354;SHT30;54238;52.278;21.056;2023-02-08T11:27:58;3.63;55.23
67354;SHT30;54238;52.278;21.056;2023-02-08T11:30:31;3.63;55.01
67354;SHT30;54238;52.278;21.056;2023-02-08T11:33:13;3.65;55.18
67354;SHT30;54238;52.278;21.056;2023-02-08T11:35:51;3.71;55.18
67354;SHT30;54238;52.278;21.056;2023-02-08T11:38:30;3.74;54.81
67354;SHT30;54238;52.278;21.056;2023-02-08T11:41:03;3.75;54.48
67354;SHT30;54238;52.278;21.056;2023-02-08T11:46:37;3.74;54.38
67354;SHT30;54238;52.278;21.056;2023-02-08T11:49:12;3.76;53.67
67354;SHT30;54238;52.278;21.056;2023-02-08T11:51:53;3.78;53.57
67354;SHT30;54238;52.278;21.056;2023-02-08T11:57:38;3.87;53.14
67354;SHT30;54238;52.278;21.056;2023-02-08T12:00:28;3.88;53.54
67354;SHT30;54238;52.278;21.056;2023-02-08T12:12:37;3.83;53.65
67354;SHT30;54238;52.278;21.056;2023-02-08T12:22:09;3.92;54.03
67354;SHT30;54238;52.278;21.056;2023-02-08T12:25:33;3.96;53.96
67354;SHT30;54238;52.278;21.056;2023-02-08T12:28:22;3.97;53.15
67354;SHT30;54238;52.278;21.056;2023-02-08T12:31:03;3.96;52.37
67354;SHT30;54238;52.278;21.056;2023-02-08T12:34:03;3.99;52.71
67354;SHT30;54238;52.278;21.056;2023-02-08T12:39:42;3.99;52.93
67354;SHT30;54238;52.278;21.056;2023-02-08T12:43:05;4.06;52.65
67354;SHT30;54238;52.278;21.056;2023-02-08T12:57:56;4.05;50.78
67354;SHT30;54238;52.278;21.056;2023-02-08T13:00:31;4.07;50.52
67354;SHT30;54238;52.278;21.056;2023-02-08T13:05:52;4.25;50.03
67354;SHT30;54238;52.278;21.056;2023-02-08T13:11:23;4.66;49.88
67354;SHT30;54238;52.278;21.056;2023-02-08T13:14:35;4.92;48.01
67354;SHT30;54238;52.278;21.056;2023-02-08T13:19:45;5.45;46.59
67354;SHT30;54238;52.278;21.056;2023-02-08T13:22:16;5.50;46.70
67354;SHT30;54238;52.278;21.056;2023-02-08T13:24:49;5.58;46.11
67354;SHT30;54238;52.278;21.056;2023-02-08T13:27:22;5.54;45.48
67354;SHT30;54238;52.278;21.056;2023-02-08T13:29:51;5.58;45.69
67354;SHT30;54238;52.278;21.056;2023-02-08T13:32:24;6.47;45.62
67354;SHT30;54238;52.278;21.056;2023-02-08T13:35:18;8.15;44.50
67354;SHT30;54238;52.278;21.056;2023-02-08T13:37:55;9.97;41.69
67354;SHT30;54238;52.278;21.056;2023-02-08T13:40:27;11.26;39.54
67354;SHT30;54238;52.278;21.056;2023-02-08T13:43:04;12.52;38.28
67354;SHT30;54238;52.278;21.056;2023-02-08T13:45:57;13.42;35.39
67354;SHT30;54238;52.278;21.056;2023-02-08T13:48:35;14.15;33.91
67354;SHT30;54238;52.278;21.056;2023-02-08T13:56:39;15.38;29.48
67354;SHT30;54238;52.278;21.056;2023-02-08T14:04:46;14.22;30.34
67354;SHT30;54238;52.278;21.056;2023-02-08T14:15:46;14.30;30.30
67354;SHT30;54238;52.278;21.056;2023-02-08T14:19:02;14.43;30.32
67354;SHT30;54238;52.278;21.056;2023-02-08T14:25:05;14.99;29.45
67354;SHT30;54238;52.278;21.056;2023-02-08T14:30:28;15.33;28.89
67354;SHT30;54238;52.278;21.056;2023-02-08T14:35:29;15.31;28.44
67354;SHT30;54238;52.278;21.056;2023-02-08T14:40:50;14.84;29.44
67354;SHT30;54238;52.278;21.056;2023-02-08T14:52:19;14.15;29.05
67354;SHT30;54238;52.278;21.056;2023-02-08T14:57:40;12.56;30.16
67354;SHT30;54238;52.278;21.056;2023-02-08T15:00:16;12.09;30.60
67354;SHT30;54238;52.278;21.056;2023-02-08T15:02:55;11.61;31.27
67354;SHT30;54238;52.278;21.056;2023-02-08T15:05:30;11.13;31.86
67354;SHT30;54238;52.278;21.056;2023-02-08T15:08:18;10.76;32.58
67354;SHT30;54238;52.278;21.056;2023-02-08T15:10:51;10.48;33.05
67354;SHT30;54238;52.278;21.056;2023-02-08T15:13:24;10.19;33.34
67354;SHT30;54238;52.278;21.056;2023-02-08T15:15:57;9.68;33.95
67354;SHT30;54238;52.278;21.056;2023-02-08T15:18:29;9.24;34.54
67354;SHT30;54238;52.278;21.056;2023-02-08T15:23:43;8.18;35.95
67354;SHT30;54238;52.278;21.056;2023-02-08T15:26:35;7.52;36.95
67354;SHT30;54238;52.278;21.056;2023-02-08T15:29:15;6.99;37.84
67354;SHT30;54238;52.278;21.056;2023-02-08T15:31:52;6.48;38.84
67354;SHT30;54238;52.278;21.056;2023-02-08T15:34:24;6.06;39.66
67354;SHT30;54238;52.278;21.056;2023-02-08T15:36:57;5.72;40.48
67354;SHT30;54238;52.278;21.056;2023-02-08T15:42:04;5.15;41.94
67354;SHT30;54238;52.278;21.056;2023-02-08T15:44:42;4.86;42.74
67354;SHT30;54238;52.278;21.056;2023-02-08T15:47:44;4.59;43.39
67354;SHT30;54238;52.278;21.056;2023-02-08T15:50:14;4.34;44.09
67354;SHT30;54238;52.278;21.056;2023-02-08T15:52:56;4.11;44.57
67354;SHT30;54238;52.278;21.056;2023-02-08T15:55:36;3.92;45.07
67354;SHT30;54238;52.278;21.056;2023-02-08T15:58:37;3.76;45.65
67354;SHT30;54238;52.278;21.056;2023-02-08T16:01:17;3.60;46.17
67354;SHT30;54238;52.278;21.056;2023-02-08T16:03:51;3.46;46.65
67354;SHT30;54238;52.278;21.056;2023-02-08T16:06:28;3.34;47.08
67354;SHT30;54238;52.278;21.056;2023-02-08T16:09:03;3.24;47.43
67354;SHT30;54238;52.278;21.056;2023-02-08T16:11:31;3.16;47.72
67354;SHT30;54238;52.278;21.056;2023-02-08T16:14:02;3.07;48.02
67354;SHT30;54238;52.278;21.056;2023-02-08T16:19:02;2.94;48.57
67354;SHT30;54238;52.278;21.056;2023-02-08T16:21:54;2.88;48.84
67354;SHT30;54238;52.278;21.056;2023-02-08T16:24:49;2.82;49.07
67354;SHT30;54238;52.278;21.056;2023-02-08T16:27:20;2.77;49.38
67354;SHT30;54238;52.278;21.056;2023-02-08T16:29:55;2.71;49.69
67354;SHT30;54238;52.278;21.056;2023-02-08T16:32:31;2.66;49.96
67354;SHT30;54238;52.278;21.056;2023-02-08T16:38:05;2.53;50.55
67354;SHT30;54238;52.278;21.056;2023-02-08T16:48:39;2.36;51.38
67354;SHT30;54238;52.278;21.056;2023-02-08T16:51:25;2.31;51.65
67354;SHT30;54238;52.278;21.056;2023-02-08T16:54:01;2.26;51.90
67354;SHT30;54238;52.278;21.056;2023-02-08T16:56:56;2.21;52.11
67354;SHT30;54238;52.278;21.056;2023-02-08T16:59:30;2.16;52.34
67354;SHT30;54238;52.278;21.056;2023-02-08T17:02:01;2.12;52.51
67354;SHT30;54238;52.278;21.056;2023-02-08T17:04:37;2.09;52.82
67354;SHT30;54238;52.278;21.056;2023-02-08T17:07:15;2.05;53.03
67354;SHT30;54238;52.278;21.056;2023-02-08T17:09:47;2.00;53.23
67354;SHT30;54238;52.278;21.056;2023-02-08T17:12:14;1.95;53.57
67354;SHT30;54238;52.278;21.056;2023-02-08T17:14:43;1.91;53.90
67354;SHT30;54238;52.278;21.056;2023-02-08T17:17:13;1.87;53.99
67354;SHT30;54238;52.278;21.056;2023-02-08T17:19:45;1.83;54.21
67354;SHT30;54238;52.278;21.056;2023-02-08T17:22:14;1.79;54.31
67354;SHT30;54238;52.278;21.056;2023-02-08T17:24:47;1.79;54.46
67354;SHT30;54238;52.278;21.056;2023-02-08T17:27:14;1.76;54.57
67354;SHT30;54238;52.278;21.056;2023-02-08T17:29:41;1.76;54.80
67354;SHT30;54238;52.278;21.056;2023-02-08T17:32:08;1.75;54.91
67354;SHT30;54238;52.278;21.056;2023-02-08T17:34:40;1.73;54.94
67354;SHT30;54238;52.278;21.056;2023-02-08T17:37:07;1.72;55.06
67354;SHT30;54238;52.278;21.056;2023-02-08T17:42:28;1.68;55.29
67354;SHT30;54238;52.278;21.056;2023-02-08T17:45:00;1.68;55.35
67354;SHT30;54238;52.278;21.056;2023-02-08T17:47:30;1.66;55.51
67354;SHT30;54238;52.278;21.056;2023-02-08T17:49:57;1.65;55.58
67354;SHT30;54238;52.278;21.056;2023-02-08T17:52:30;1.62;55.78
67354;SHT30;54238;52.278;21.056;2023-02-08T17:54:57;1.61;55.91
67354;SHT30;54238;52.278;21.056;2023-02-08T17:57:32;1.59;55.90
67354;SHT30;54238;52.278;21.056;2023-02-08T18:00:06;1.58;56.02
67354;SHT30;54238;52.278;21.056;2023-02-08T18:03:07;1.55;56.21
67354;SHT30;54238;52.278;21.056;2023-02-08T18:05:37;1.51;56.40
67354;SHT30;54238;52.278;21.056;2023-02-08T18:08:06;1.48;56.56
67354;SHT30;54238;52.278;21.056;2023-02-08T18:10:36;1.46;56.65
67354;SHT30;54238;52.278;21.056;2023-02-08T18:13:03;1.45;56.77
67354;SHT30;54238;52.278;21.056;2023-02-08T18:15:33;1.41;56.85
67354;SHT30;54238;52.278;21.056;2023-02-08T18:18:00;1.39;57.04
67354;SHT30;54238;52.278;21.056;2023-02-08T18:20:29;1.38;57.19
67354;SHT30;54238;52.278;21.056;2023-02-08T18:22:59;1.38;57.29
67354;SHT30;54238;52.278;21.056;2023-02-08T18:25:29;1.37;57.35
67354;SHT30;54238;52.278;21.056;2023-02-08T18:28:00;1.35;57.47
67354;SHT30;54238;52.278;21.056;2023-02-08T18:30:30;1.34;57.53
67354;SHT30;54238;52.278;21.056;2023-02-08T18:32:59;1.32;57.64
67354;SHT30;54238;52.278;21.056;2023-02-08T18:35:34;1.31;57.75
67354;SHT30;54238;52.278;21.056;2023-02-08T18:38:09;1.29;57.86
67354;SHT30;54238;52.278;21.056;2023-02-08T18:40:36;1.28;57.91
67354;SHT30;54238;52.278;21.056;2023-02-08T18:43:10;1.27;57.99
67354;SHT30;54238;52.278;21.056;2023-02-08T18:45:37;1.27;58.07
67354;SHT30;54238;52.278;21.056;2023-02-08T18:48:05;1.25;58.10
67354;SHT30;54238;52.278;21.056;2023-02-08T18:50:32;1.21;58.21
67354;SHT30;54238;52.278;21.056;2023-02-08T18:53:01;1.18;58.50
67354;SHT30;54238;52.278;21.056;2023-02-08T18:55:33;1.12;58.70
67354;SHT30;54238;52.278;21.056;2023-02-08T18:58:05;1.03;58.92
67354;SHT30;54238;52.278;21.056;2023-02-08T19:00:34;0.95;59.16
67354;SHT30;54238;52.278;21.056;2023-02-08T19:03:04;0.88;59.35
67354;SHT30;54238;52.278;21.056;2023-02-08T19:05:35;0.80;59.58
67354;SHT30;54238;52.278;21.056;2023-02-08T19:08:03;0.74;59.82
67354;SHT30;54238;52.278;21.056;2023-02-08T19:10:36;0.68;59.96
67354;SHT30;54238;52.278;21.056;2023-02-08T19:13:08;0.61;60.20
67354;SHT30;54238;52.278;21.056;2023-02-08T19:15:37;0.57;60.35
67354;SHT30;54238;52.278;21.056;2023-02-08T19:18:06;0.51;60.52
67354;SHT30;54238;52.278;21.056;2023-02-08T19:20:36;0.45;60.75
67354;SHT30;54238;52.278;21.056;2023-02-08T19:23:06;0.36;60.99
67354;SHT30;54238;52.278;21.056;2023-02-08T19:25:37;0.31;61.31
67354;SHT30;54238;52.278;21.056;2023-02-08T19:28:07;0.31;61.33
67354;SHT30;54238;52.278;21.056;2023-02-08T19:30:37;0.31;61.40
67354;SHT30;54238;52.278;21.056;2023-02-08T19:36:04;0.28;61.61
67354;SHT30;54238;52.278;21.056;2023-02-08T19:38:44;0.25;61.70